createdAt,value
2023-01-18T00:01:06.255Z,98174.78
2023-01-18T00:03:34.424Z,98186.56
2023-01-18T00:06:07.854Z,98188.06
2023-01-18T00:08:36.990Z,98189.53
2023-01-18T00:11:06.030Z,98186.34
2023-01-18T00:13:33.860Z,98190.19
2023-01-18T00:16:05.557Z,98192.53
2023-01-18T00:18:33.015Z,98195.63
2023-01-18T00:21:03.846Z,98202.31
2023-01-18T00:23:31.022Z,98199.50
2023-01-18T00:26:07.146Z,98203.78
2023-01-18T00:28:34.339Z,98198.56
2023-01-18T00:31:01.052Z,98205.63
2023-01-18T00:33:27.659Z,98196.09
2023-01-18T00:36:03.066Z,98195.25
2023-01-18T00:38:30.218Z,98202.03
2023-01-18T00:40:57.496Z,98198.31
2023-01-18T00:43:39.845Z,98201.00
2023-01-18T00:46:06.605Z,98194.59
2023-01-18T00:48:33.932Z,98203.31
2023-01-18T00:51:01.129Z,98202.03
2023-01-18T00:53:28.272Z,98199.56
2023-01-18T00:55:55.337Z,98209.47
2023-01-18T00:58:21.991Z,98204.25
2023-01-18T01:00:51.915Z,98198.28
2023-01-18T01:03:22.308Z,98202.91
2023-01-18T01:06:08.048Z,98206.47
2023-01-18T01:08:34.688Z,98218.25
2023-01-18T01:11:10.781Z,98217.38
2023-01-18T01:13:56.955Z,98217.69
2023-01-18T01:16:42.477Z,98218.84
2023-01-18T01:19:27.732Z,98223.63
2023-01-18T01:22:12.943Z,98221.34
2023-01-18T01:24:58.212Z,98222.72
2023-01-18T01:27:25.130Z,98232.25
2023-01-18T01:29:52.819Z,98233.69
2023-01-18T01:32:19.571Z,98237.94
2023-01-18T01:34:46.634Z,98242.28
2023-01-18T01:37:13.261Z,98241.06
2023-01-18T01:39:40.464Z,98246.94
2023-01-18T01:42:11.113Z,98246.22
2023-01-18T01:44:45.442Z,98255.22
2023-01-18T01:47:25.952Z,98255.97
2023-01-18T01:49:59.117Z,98262.66
2023-01-18T01:52:34.025Z,98266.16
2023-01-18T01:55:15.865Z,98269.03
2023-01-18T01:58:03.956Z,98262.50
2023-01-18T02:00:30.970Z,98262.38
2023-01-18T02:03:05.363Z,98255.41
2023-01-18T02:05:35.943Z,98262.38
2023-01-18T02:08:11.307Z,98271.09
2023-01-18T02:10:38.961Z,98275.00
2023-01-18T02:13:08.739Z,98269.44
2023-01-18T02:15:48.062Z,98272.56
2023-01-18T02:18:28.832Z,98272.56
2023-01-18T02:21:10.610Z,98268.69
2023-01-18T02:24:06.684Z,98269.94
2023-01-18T02:26:50.376Z,98270.22
2023-01-18T02:29:41.818Z,98276.91
2023-01-18T02:32:21.220Z,98281.44
2023-01-18T02:35:03.167Z,98280.53
2023-01-18T02:37:39.870Z,98277.06
2023-01-18T02:40:23.871Z,98277.78
2023-01-18T02:43:09.185Z,98277.06
2023-01-18T02:46:01.086Z,98281.84
2023-01-18T02:48:35.052Z,98286.50
2023-01-18T02:51:01.847Z,98282.41
2023-01-18T02:53:30.149Z,98285.91
2023-01-18T02:56:03.533Z,98288.94
2023-01-18T02:58:51.278Z,98285.38
2023-01-18T03:01:28.856Z,98294.03
2023-01-18T03:04:00.997Z,98292.34
2023-01-18T03:06:30.206Z,98299.38
2023-01-18T03:08:58.985Z,98293.59
2023-01-18T03:11:50.483Z,98298.66
2023-01-18T03:14:36.488Z,98304.91
2023-01-18T03:17:20.334Z,98305.59
2023-01-18T03:20:07.828Z,98307.22
2023-01-18T03:23:10.233Z,98310.25
2023-01-18T03:25:41.255Z,98313.28
2023-01-18T03:28:34.763Z,98311.69
2023-01-18T03:31:24.588Z,98314.88
2023-01-18T03:34:02.463Z,98323.16
2023-01-18T03:36:34.543Z,98322.91
2023-01-18T03:39:11.842Z,98316.25
2023-01-18T03:41:43.525Z,98319.34
2023-01-18T03:44:22.078Z,98321.69
2023-01-18T03:46:49.108Z,98334.28
2023-01-18T03:49:18.027Z,98331.81
2023-01-18T03:51:55.962Z,98331.81
2023-01-18T03:54:31.432Z,98330.22
2023-01-18T03:57:04.548Z,98327.09
2023-01-18T03:59:37.452Z,98332.53
2023-01-18T04:02:06.416Z,98332.72
2023-01-18T04:04:33.396Z,98340.19
2023-01-18T04:07:00.106Z,98341.97
2023-01-18T04:09:27.108Z,98345.88
2023-01-18T04:11:53.979Z,98345.53
2023-01-18T04:14:20.750Z,98348.28
2023-01-18T04:16:47.375Z,98349.44
2023-01-18T04:19:14.019Z,98359.06
2023-01-18T04:21:43.283Z,98361.91
2023-01-18T04:24:11.308Z,98349.44
2023-01-18T04:26:38.502Z,98352.41
2023-01-18T04:29:05.667Z,98363.94
2023-01-18T04:31:32.639Z,98366.59
2023-01-18T04:33:59.312Z,98367.41
2023-01-18T04:36:26.467Z,98368.81
2023-01-18T04:38:54.506Z,98372.06
2023-01-18T04:41:21.767Z,98373.81
2023-01-18T04:43:48.547Z,98377.47
2023-01-18T04:46:15.569Z,98375.50
2023-01-18T04:48:42.849Z,98369.09
2023-01-18T04:51:16.146Z,98377.81
2023-01-18T04:53:44.035Z,98384.50
2023-01-18T04:56:11.361Z,98382.97
2023-01-18T04:58:38.353Z,98379.59
2023-01-18T05:01:07.503Z,98381.19
2023-01-18T05:03:38.318Z,98381.09
2023-01-18T05:06:07.126Z,98389.81
2023-01-18T05:08:34.378Z,98389.81
2023-01-18T05:11:06.436Z,98401.09
2023-01-18T05:13:33.608Z,98400.75
2023-01-18T05:16:03.887Z,98394.44
2023-01-18T05:18:32.477Z,98404.56
2023-01-18T05:20:59.315Z,98410.13
2023-01-18T05:23:26.153Z,98416.13
2023-01-18T05:25:57.765Z,98421.97
2023-01-18T05:28:27.482Z,98427.84
2023-01-18T05:30:58.094Z,98431.03
2023-01-18T05:33:24.918Z,98435.84
2023-01-18T05:35:55.542Z,98442.97
2023-01-18T05:38:23.125Z,98441.63
2023-01-18T05:40:53.049Z,98445.06
2023-01-18T05:43:24.559Z,98455.19
2023-01-18T05:45:51.290Z,98461.84
2023-01-18T05:48:18.503Z,98464.16
2023-01-18T05:50:47.108Z,98468.78
2023-01-18T05:53:15.659Z,98471.06
2023-01-18T05:55:42.354Z,98466.78
2023-01-18T05:58:09.526Z,98479.31
2023-01-18T06:00:36.374Z,98474.94
2023-01-18T06:03:03.439Z,98475.06
2023-01-18T06:05:30.563Z,98473.81
2023-01-18T06:07:57.181Z,98476.94
2023-01-18T06:10:24.041Z,98477.03
2023-01-18T06:12:51.022Z,98484.63
2023-01-18T06:15:17.591Z,98486.22
2023-01-18T06:17:47.055Z,98489.91
2023-01-18T06:20:14.392Z,98496.34
2023-01-18T06:22:41.328Z,98493.94
2023-01-18T06:25:10.001Z,98495.06
2023-01-18T06:27:38.983Z,98494.41
2023-01-18T06:30:06.982Z,98494.03
2023-01-18T06:32:33.972Z,98500.25
2023-01-18T06:35:00.559Z,98499.44
2023-01-18T06:37:27.356Z,98502.44
2023-01-18T06:39:54.107Z,98497.75
2023-01-18T06:42:20.718Z,98502.69
2023-01-18T06:44:47.507Z,98507.84
2023-01-18T06:47:18.785Z,98500.06
2023-01-18T06:49:48.919Z,98513.34
2023-01-18T06:52:16.251Z,98519.91
2023-01-18T06:54:44.938Z,98529.44
2023-01-18T06:57:12.423Z,98534.00
2023-01-18T06:59:39.969Z,98528.50
2023-01-18T07:02:07.479Z,98535.88
2023-01-18T07:04:37.943Z,98546.06
2023-01-18T07:07:04.819Z,98543.00
2023-01-18T07:09:31.440Z,98553.28
2023-01-18T07:11:58.100Z,98548.72
2023-01-18T07:14:24.766Z,98556.16
2023-01-18T07:16:51.417Z,98562.03
2023-01-18T07:19:18.147Z,98569.81
2023-01-18T07:21:48.291Z,98579.38
2023-01-18T07:24:15.133Z,98582.22
2023-01-18T07:26:41.978Z,98586.81
2023-01-18T07:29:09.198Z,98579.81
2023-01-18T07:31:38.200Z,98589.91
2023-01-18T07:34:05.026Z,98592.34
2023-01-18T07:36:31.678Z,98597.50
2023-01-18T07:38:58.382Z,98608.16
2023-01-18T07:41:26.171Z,98608.59
2023-01-18T07:43:53.931Z,98603.00
2023-01-18T07:46:20.887Z,98607.03
2023-01-18T07:48:48.422Z,98608.59
2023-01-18T07:51:15.713Z,98612.16
2023-01-18T07:53:42.493Z,98608.06
2023-01-18T07:56:13.750Z,98609.56
2023-01-18T07:58:40.592Z,98610.28
2023-01-18T08:01:13.271Z,98618.72
2023-01-18T08:03:41.672Z,98624.44
2023-01-18T08:06:09.075Z,98632.88
2023-01-18T08:08:36.977Z,98627.75
2023-01-18T08:11:06.119Z,98634.69
2023-01-18T08:13:33.299Z,98635.28
2023-01-18T08:16:01.996Z,98642.81
2023-01-18T08:18:29.066Z,98637.47
2023-01-18T08:20:56.168Z,98645.41
2023-01-18T08:23:23.155Z,98652.09
2023-01-18T08:25:50.019Z,98650.72
2023-01-18T08:28:17.707Z,98659.13
2023-01-18T08:30:47.526Z,98644.00
2023-01-18T08:33:15.072Z,98656.59
2023-01-18T08:35:44.508Z,98663.94
2023-01-18T08:38:12.041Z,98664.22
2023-01-18T08:40:39.110Z,98671.72
2023-01-18T08:43:06.295Z,98662.34
2023-01-18T08:45:35.054Z,98677.25
2023-01-18T08:48:04.400Z,98687.50
2023-01-18T08:50:31.686Z,98672.50
2023-01-18T08:53:00.323Z,98678.31
2023-01-18T08:55:27.778Z,98680.91
2023-01-18T08:57:56.798Z,98690.69
2023-01-18T09:00:26.931Z,98693.91
2023-01-18T09:02:54.202Z,98701.66
2023-01-18T09:05:20.964Z,98701.94
2023-01-18T09:07:47.726Z,98694.63
2023-01-18T09:10:14.956Z,98700.41
2023-01-18T09:12:41.713Z,98717.03
2023-01-18T09:15:09.553Z,98706.75
2023-01-18T09:17:36.276Z,98714.72
2023-01-18T09:20:03.265Z,98724.16
2023-01-18T09:22:30.039Z,98719.88
2023-01-18T09:24:57.575Z,98729.25
2023-01-18T09:27:24.382Z,98724.59
2023-01-18T09:29:52.424Z,98733.38
2023-01-18T09:32:20.051Z,98738.09
2023-01-18T09:34:50.770Z,98737.28
2023-01-18T09:37:19.110Z,98738.00
2023-01-18T09:39:51.984Z,98754.22
2023-01-18T09:42:25.369Z,98749.97
2023-01-18T09:44:58.651Z,98760.94
2023-01-18T09:47:28.686Z,98749.16
2023-01-18T09:50:02.338Z,98759.13
2023-01-18T09:52:35.120Z,98761.03
2023-01-18T09:55:48.174Z,98769.66
2023-01-18T09:58:24.306Z,98774.13
2023-01-18T10:00:51.501Z,98773.34
2023-01-18T10:03:26.984Z,98773.41
2023-01-18T10:06:08.968Z,98776.19
2023-01-18T10:08:45.489Z,98776.28
2023-01-18T10:11:37.836Z,98784.22
2023-01-18T10:14:15.332Z,98781.47
2023-01-18T10:16:42.165Z,98783.53
2023-01-18T10:19:21.759Z,98783.53
2023-01-18T10:21:58.857Z,98774.84
2023-01-18T10:24:31.558Z,98786.75
2023-01-18T10:27:20.203Z,98790.63
2023-01-18T10:29:54.893Z,98783.72
2023-01-18T10:32:25.199Z,98787.28
2023-01-18T10:34:52.596Z,98787.72
2023-01-18T10:37:45.346Z,98784.16
2023-01-18T10:40:14.694Z,98782.28
2023-01-18T10:42:47.073Z,98788.25
2023-01-18T10:45:27.787Z,98791.84
2023-01-18T10:47:56.660Z,98798.28
2023-01-18T10:50:29.491Z,98799.50
2023-01-18T10:52:56.735Z,98806.28
2023-01-18T10:55:23.910Z,98806.38
2023-01-18T10:57:54.143Z,98805.22
2023-01-18T11:00:22.828Z,98808.78
2023-01-18T11:02:52.190Z,98816.47
2023-01-18T11:05:22.059Z,98818.53
2023-01-18T11:08:11.712Z,98821.00
2023-01-18T11:10:39.223Z,98818.25
2023-01-18T11:13:25.011Z,98807.59
2023-01-18T11:16:13.769Z,98817.53
2023-01-18T11:18:55.641Z,98816.53
2023-01-18T11:21:23.825Z,98814.13
2023-01-18T11:23:53.198Z,98822.16
2023-01-18T11:26:23.432Z,98814.22
2023-01-18T11:29:01.979Z,98816.22
2023-01-18T11:31:47.655Z,98819.00
2023-01-18T11:34:27.081Z,98824.53
2023-01-18T11:36:55.406Z,98825.44
2023-01-18T11:39:35.678Z,98830.53
2023-01-18T11:42:22.715Z,98837.25
2023-01-18T11:45:14.694Z,98835.97
2023-01-18T11:48:03.645Z,98828.25
2023-01-18T11:50:36.113Z,98832.28
2023-01-18T11:53:11.929Z,98823.59
2023-01-18T11:55:47.642Z,98831.91
2023-01-18T11:58:28.776Z,98833.59
2023-01-18T12:01:24.085Z,98829.31
2023-01-18T12:04:12.012Z,98827.84
2023-01-18T12:06:41.713Z,98834.56
2023-01-18T12:09:33.964Z,98833.47
2023-01-18T12:12:19.320Z,98839.00
2023-01-18T12:14:46.464Z,98833.53
2023-01-18T12:17:13.272Z,98843.47
2023-01-18T12:20:00.989Z,98839.97
2023-01-18T12:22:58.871Z,98838.38
2023-01-18T12:25:53.778Z,98836.47
2023-01-18T12:28:56.614Z,98836.91
2023-01-18T12:31:54.148Z,98849.59
2023-01-18T12:34:38.348Z,98838.44
2023-01-18T12:37:17.241Z,98849.47
2023-01-18T12:40:21.572Z,98846.25
2023-01-18T12:42:57.101Z,98839.91
2023-01-18T12:45:42.087Z,98848.66
2023-01-18T12:48:42.915Z,98845.78
2023-01-18T12:51:23.189Z,98844.13
2023-01-18T12:54:15.925Z,98838.19
2023-01-18T12:56:47.960Z,98848.50
2023-01-18T12:59:40.678Z,98849.66
2023-01-18T13:02:16.259Z,98840.53
2023-01-18T13:04:49.868Z,98849.22
2023-01-18T13:07:22.475Z,98847.25
2023-01-18T13:09:50.763Z,98845.28
2023-01-18T13:12:18.214Z,98852.34
2023-01-18T13:15:07.943Z,98852.78
2023-01-18T13:17:56.061Z,98856.44
2023-01-18T13:20:37.233Z,98858.78
2023-01-18T13:23:49.544Z,98862.28
2023-01-18T13:26:25.882Z,98872.19
2023-01-18T13:29:29.238Z,98876.47
2023-01-18T13:31:56.994Z,98874.53
2023-01-18T13:34:31.174Z,98880.16
2023-01-18T13:37:13.298Z,98875.75
2023-01-18T13:39:47.499Z,98880.22
2023-01-18T13:42:14.067Z,98879.34
2023-01-18T13:44:43.689Z,98889.50
2023-01-18T13:47:45.857Z,98884.03
2023-01-18T13:50:40.112Z,98890.19
2023-01-18T13:53:15.893Z,98894.31
2023-01-18T13:56:25.758Z,98894.03
2023-01-18T13:58:55.532Z,98891.38
2023-01-18T14:01:25.097Z,98888.34
2023-01-18T14:03:54.079Z,98888.34
2023-01-18T14:06:26.667Z,98892.66
2023-01-18T14:08:56.972Z,98895.19
2023-01-18T14:11:28.667Z,98906.38
2023-01-18T14:13:55.518Z,98897.81
2023-01-18T14:16:26.419Z,98897.22
2023-01-18T14:19:10.705Z,98909.13
2023-01-18T14:21:43.702Z,98905.94
2023-01-18T14:24:42.865Z,98916.22
2023-01-18T14:27:18.611Z,98917.66
2023-01-18T14:29:55.123Z,98924.03
2023-01-18T14:32:27.442Z,98920.00
2023-01-18T14:34:59.750Z,98931.84
2023-01-18T14:37:32.384Z,98933.44
2023-01-18T14:40:06.314Z,98928.47
2023-01-18T14:42:37.776Z,98929.50
2023-01-18T14:45:05.818Z,98929.50
2023-01-18T14:47:34.591Z,98929.50
2023-01-18T14:50:04.108Z,98937.38
2023-01-18T14:52:34.167Z,98942.94
2023-01-18T14:55:01.269Z,98945.78
2023-01-18T14:57:28.115Z,98945.84
2023-01-18T15:00:04.439Z,98947.84
2023-01-18T15:02:37.854Z,98954.16
2023-01-18T15:05:22.374Z,98958.97
2023-01-18T15:07:55.864Z,98955.06
2023-01-18T15:10:24.283Z,98962.94
2023-01-18T15:12:55.360Z,98960.47
2023-01-18T15:15:38.313Z,98960.81
2023-01-18T15:18:12.096Z,98962.34
2023-01-18T15:21:02.508Z,98963.16
2023-01-18T15:23:30.368Z,98968.38
2023-01-18T15:25:57.934Z,98970.69
2023-01-18T15:28:31.544Z,98967.19
2023-01-18T15:31:01.184Z,98966.88
2023-01-18T15:33:28.518Z,98969.75
2023-01-18T15:36:01.816Z,98973.63
2023-01-18T15:38:28.667Z,98973.63
2023-01-18T15:41:10.996Z,98976.19
2023-01-18T15:43:47.907Z,98971.94
2023-01-18T15:46:17.239Z,98971.13
2023-01-18T15:48:51.544Z,98967.47
2023-01-18T15:51:22.582Z,98975.22
2023-01-18T15:53:56.050Z,98983.09
2023-01-18T15:56:26.714Z,98983.81
2023-01-18T15:58:56.002Z,98990.75
2023-01-18T16:01:27.835Z,98983.69
2023-01-18T16:04:06.928Z,98991.53
2023-01-18T16:06:37.143Z,98997.81
2023-01-18T16:09:12.048Z,98992.22
2023-01-18T16:11:38.991Z,98990.59
2023-01-18T16:14:18.998Z,98995.34
2023-01-18T16:16:46.539Z,98995.19
2023-01-18T16:19:21.111Z,98995.19
2023-01-18T16:21:59.692Z,98988.03
2023-01-18T16:24:30.620Z,99002.63
2023-01-18T16:27:00.391Z,99003.75
2023-01-18T16:29:27.254Z,99003.50
2023-01-18T16:32:16.623Z,99014.44
2023-01-18T16:34:43.345Z,99019.53
2023-01-18T16:37:10.181Z,99017.09
2023-01-18T16:39:41.008Z,99028.19
2023-01-18T16:42:10.219Z,99030.44
2023-01-18T16:44:37.652Z,99030.78
2023-01-18T16:47:04.756Z,99032.06
2023-01-18T16:49:31.455Z,99037.97
2023-01-18T16:51:58.171Z,99031.94
2023-01-18T16:54:24.712Z,99029.63
2023-01-18T16:56:51.307Z,99039.00
2023-01-18T16:59:21.867Z,99046.19
2023-01-18T17:01:49.506Z,99042.22
2023-01-18T17:04:16.593Z,99046.19
2023-01-18T17:06:44.606Z,99047.09
2023-01-18T17:09:27.016Z,99049.38
2023-01-18T17:11:53.868Z,99046.63
2023-01-18T17:14:21.851Z,99046.47
2023-01-18T17:16:49.497Z,99054.41
2023-01-18T17:19:21.940Z,99057.66
2023-01-18T17:21:50.496Z,99060.84
2023-01-18T17:24:21.091Z,99060.56
2023-01-18T17:26:47.894Z,99063.34
2023-01-18T17:29:17.943Z,99063.00
2023-01-18T17:31:52.111Z,99065.13
2023-01-18T17:34:28.044Z,99073.09
2023-01-18T17:36:58.070Z,99075.50
2023-01-18T17:39:32.155Z,99072.00
2023-01-18T17:42:12.276Z,99077.94
2023-01-18T17:44:41.117Z,99085.00
2023-01-18T17:47:07.816Z,99093.75
2023-01-18T17:49:34.541Z,99101.06
2023-01-18T17:52:01.277Z,99094.81
2023-01-18T17:54:28.596Z,99099.56
2023-01-18T17:56:55.363Z,99102.78
2023-01-18T17:59:22.411Z,99099.94
2023-01-18T18:01:49.229Z,99104.13
2023-01-18T18:04:15.914Z,99111.22
2023-01-18T18:06:53.386Z,99106.72
2023-01-18T18:09:20.877Z,99114.19
2023-01-18T18:11:47.601Z,99116.94
2023-01-18T18:14:14.251Z,99125.97
2023-01-18T18:16:43.427Z,99122.41
2023-01-18T18:19:14.557Z,99121.16
2023-01-18T18:21:45.874Z,99125.00
2023-01-18T18:24:12.809Z,99128.94
2023-01-18T18:26:39.933Z,99130.81
2023-01-18T18:29:06.555Z,99127.25
2023-01-18T18:31:33.496Z,99125.53
2023-01-18T18:34:00.448Z,99136.72
2023-01-18T18:36:27.700Z,99140.56
2023-01-18T18:38:54.457Z,99140.88
2023-01-18T18:41:21.311Z,99138.13
2023-01-18T18:43:48.116Z,99144.28
2023-01-18T18:46:15.100Z,99151.53
2023-01-18T18:48:45.373Z,99159.38
2023-01-18T18:51:30.224Z,99157.78
2023-01-18T18:53:57.034Z,99160.19
2023-01-18T18:56:23.841Z,99154.75
2023-01-18T18:58:50.550Z,99155.47
2023-01-18T19:01:29.430Z,99170.47
2023-01-18T19:03:57.646Z,99176.03
2023-01-18T19:06:25.804Z,99176.94
2023-01-18T19:08:53.472Z,99172.09
2023-01-18T19:11:20.792Z,99179.25
2023-01-18T19:13:49.444Z,99184.34
2023-01-18T19:16:17.020Z,99183.91
2023-01-18T19:18:43.952Z,99182.75
2023-01-18T19:21:11.104Z,99196.63
2023-01-18T19:23:40.194Z,99193.38
2023-01-18T19:26:06.866Z,99192.50
2023-01-18T19:28:33.537Z,99196.13
2023-01-18T19:31:05.158Z,99199.66
2023-01-18T19:33:32.153Z,99196.50
2023-01-18T19:36:05.940Z,99195.69
2023-01-18T19:38:32.710Z,99199.19
2023-01-18T19:41:03.032Z,99196.88
2023-01-18T19:43:29.832Z,99205.19
2023-01-18T19:45:59.079Z,99210.38
2023-01-18T19:48:25.930Z,99203.47
2023-01-18T19:50:52.809Z,99205.91
2023-01-18T19:53:19.453Z,99206.25
2023-01-18T19:55:46.102Z,99203.03
2023-01-18T19:58:12.797Z,99210.97
2023-01-18T20:00:41.333Z,99209.00
2023-01-18T20:03:12.109Z,99211.53
2023-01-18T20:05:42.720Z,99222.31
2023-01-18T20:08:09.362Z,99222.53
2023-01-18T20:10:36.205Z,99228.78
2023-01-18T20:13:03.296Z,99215.16
2023-01-18T20:15:30.219Z,99235.03
2023-01-18T20:17:56.972Z,99233.53
2023-01-18T20:20:31.824Z,99239.16
2023-01-18T20:23:02.595Z,99235.94
2023-01-18T20:25:30.539Z,99231.09
2023-01-18T20:27:57.266Z,99240.09
2023-01-18T20:30:24.206Z,99242.97
2023-01-18T20:32:51.162Z,99237.72
2023-01-18T20:35:17.959Z,99246.53
2023-01-18T20:37:44.771Z,99251.59
2023-01-18T20:40:12.153Z,99250.34
2023-01-18T20:42:39.871Z,99261.34
2023-01-18T20:45:07.287Z,99260.78
2023-01-18T20:47:34.066Z,99258.63
2023-01-18T20:50:00.884Z,99263.25
2023-01-18T20:52:27.728Z,99269.97
2023-01-18T20:54:54.875Z,99269.38
2023-01-18T20:57:24.042Z,99285.66
2023-01-18T20:59:50.957Z,99284.03
2023-01-18T21:02:17.748Z,99287.50
2023-01-18T21:04:44.550Z,99285.09
2023-01-18T21:07:11.181Z,99287.50
2023-01-18T21:09:37.956Z,99287.88
2023-01-18T21:12:05.032Z,99283.84
2023-01-18T21:14:31.715Z,99284.72
2023-01-18T21:16:58.571Z,99292.75
2023-01-18T21:19:25.796Z,99293.81
2023-01-18T21:21:52.552Z,99300.06
2023-01-18T21:24:19.450Z,99298.06
2023-01-18T21:26:46.125Z,99297.28
2023-01-18T21:29:13.040Z,99290.81
2023-01-18T21:31:41.040Z,99287.97
2023-01-18T21:34:07.999Z,99284.72
2023-01-18T21:36:34.628Z,99281.75
2023-01-18T21:39:01.194Z,99289.00
2023-01-18T21:41:46.727Z,99278.16
2023-01-18T21:44:32.139Z,99283.50
2023-01-18T21:46:59.066Z,99285.31
2023-01-18T21:50:15.632Z,99289.03
2023-01-18T21:52:49.798Z,99286.66
2023-01-18T21:55:16.950Z,99288.03
2023-01-18T21:57:43.895Z,99288.41
2023-01-18T22:00:11.659Z,99290.59
2023-01-18T22:02:38.449Z,99290.00
2023-01-18T22:05:05.978Z,99295.63
2023-01-18T22:07:35.118Z,99313.72
2023-01-18T22:10:05.461Z,99323.03
2023-01-18T22:12:35.509Z,99330.88
2023-01-18T22:15:03.468Z,99337.06
2023-01-18T22:17:30.388Z,99333.38
2023-01-18T22:19:57.610Z,99339.25
2023-01-18T22:22:24.549Z,99349.84
2023-01-18T22:24:51.812Z,99345.31
2023-01-18T22:27:18.612Z,99346.81
2023-01-18T22:29:45.440Z,99354.31
2023-01-18T22:32:16.271Z,99349.81
2023-01-18T22:34:43.081Z,99350.13
2023-01-18T22:37:10.460Z,99343.69
2023-01-18T22:39:37.287Z,99344.81
2023-01-18T22:42:04.115Z,99355.72
2023-01-18T22:44:33.302Z,99351.22
2023-01-18T22:47:00.426Z,99359.06
2023-01-18T22:49:27.504Z,99358.94
2023-01-18T22:51:54.178Z,99361.34
2023-01-18T22:54:22.937Z,99356.38
2023-01-18T22:56:49.897Z,99363.84
2023-01-18T22:59:16.740Z,99360.63
2023-01-18T23:01:43.313Z,99366.94
2023-01-18T23:04:10.396Z,99361.28
2023-01-18T23:06:46.599Z,99353.19
2023-01-18T23:09:15.502Z,99358.78
2023-01-18T23:11:42.306Z,99358.47
2023-01-18T23:14:27.531Z,99363.03
2023-01-18T23:17:13.103Z,99357.34
2023-01-18T23:19:39.809Z,99357.25
2023-01-18T23:22:10.625Z,99360.00
2023-01-18T23:24:38.131Z,99363.44
2023-01-18T23:27:06.799Z,99368.47
2023-01-18T23:29:33.820Z,99362.47
2023-01-18T23:32:00.633Z,99366.38
2023-01-18T23:34:27.478Z,99368.66
2023-01-18T23:36:54.202Z,99363.16
2023-01-18T23:39:39.478Z,99365.75
2023-01-18T23:42:24.933Z,99370.50
2023-01-18T23:45:10.397Z,99362.22
2023-01-18T23:47:55.458Z,99368.41
2023-01-18T23:50:41.396Z,99372.47
2023-01-18T23:53:31.056Z,99371.31
2023-01-18T23:55:58.432Z,99366.94
2023-01-18T23:58:25.617Z,99371.97
